Jules — FAB9197 — position and weather

sailwx.info

Track history (hours):
 
Tides and Currents Weather Stations Pressure Air Temp Water Temp Dewpoint Dewpoint Depression Visibility Wind Speed Wind Dir Waves Ship Positions

Jules

Last reported at 2017-Sep-17 16:07 UTC. Time now 2017-Sep-22 01:13 UTC.
Position N 47°43' W 003°21'.

Length 12 m.

Type: Sailing vessel. MMSI: 227252370.

Date/timePositionNaut miles runAvg speedWind from/ knotsBaromVisibWave heightAir tempDewpointWater temp
2017-Sep-17 16:07N 47°43' W 003°21'0 0.0
2017-Sep-17 15:58N 47°43' W 003°21'0 0.0
2017-Sep-17 15:30N 47°43' W 003°21'2 3.1
2017-Sep-17 15:00N 47°42' W 003°22'3 6.3
2017-Sep-17 14:30N 47°41' W 003°27'3 6.9
2017-Sep-17 14:00N 47°43' W 003°31'3 6.5
2017-Sep-17 13:30N 47°44' W 003°36'4 7.2
2017-Sep-17 13:00N 47°46' W 003°41'3 0.1
2017-Sep-16 14:06N 47°48' W 003°44'0 1.7
2017-Sep-16 14:00N 47°48' W 003°44'2 4.5
2017-Sep-16 13:30N 47°46' W 003°41'2 4.0
2017-Sep-16 13:00N 47°45' W 003°39'2 4.6
2017-Sep-16 12:30N 47°45' W 003°35'1 1.9
2017-Sep-16 12:00N 47°44' W 003°34'3 5.2
2017-Sep-16 11:30N 47°42' W 003°32'3 5.5
2017-Sep-16 11:00N 47°41' W 003°28'2 3.9
2017-Sep-16 10:30N 47°41' W 003°25'2 3.1
2017-Sep-16 10:00N 47°42' W 003°23'2 3.9
2017-Sep-16 09:30N 47°43' W 003°21'0 0.8
2017-Sep-16 08:59N 47°43' W 003°21'0 0.0
2017-Sep-16 08:29N 47°43' W 003°21'0 0.0
2017-Sep-16 07:59N 47°43' W 003°21'0 0.0
2017-Sep-16 07:29N 47°43' W 003°21'0 0.0
2017-Sep-16 06:59N 47°43' W 003°21'0 0.0
2017-Sep-16 06:29N 47°44' W 003°21'0 0.0
2017-Sep-16 05:59N 47°43' W 003°21'0 0.0
2017-Sep-16 05:29N 47°43' W 003°21'0 0.0
2017-Sep-16 04:59N 47°43' W 003°21'0 0.0
2017-Sep-16 04:29N 47°43' W 003°21'0 0.0
2017-Sep-16 03:59N 47°44' W 003°21'0 0.0
2017-Sep-16 03:29N 47°44' W 003°21'0 0.0
2017-Sep-16 02:59N 47°43' W 003°21'0 0.0
2017-Sep-16 02:29N 47°43' W 003°21'0 0.0
2017-Sep-16 01:59N 47°43' W 003°21'0 0.0
2017-Sep-16 01:29N 47°43' W 003°21'0 0.0
2017-Sep-16 00:59N 47°43' W 003°21'0 0.0
2017-Sep-16 00:29N 47°44' W 003°21'0 0.0
2017-Sep-15 23:59N 47°43' W 003°21'0 0.0
2017-Sep-15 23:29N 47°43' W 003°21'0 0.0
2017-Sep-15 22:59N 47°43' W 003°21'0 0.0
2017-Sep-15 22:29N 47°43' W 003°21'0 0.0
2017-Sep-15 21:59N 47°43' W 003°21'0 0.0
2017-Sep-15 21:29N 47°43' W 003°21'0 0.0
2017-Sep-15 20:59N 47°43' W 003°21'0 0.0
2017-Sep-15 20:29N 47°43' W 003°21'0 0.0
2017-Sep-15 19:59N 47°43' W 003°21'0 0.0
2017-Sep-15 19:29N 47°43' W 003°21'0 0.0
2017-Sep-15 18:59N 47°43' W 003°21'  
Track history (hours):
 
Tides and Currents Weather Stations Pressure Air Temp Water Temp Dewpoint Dewpoint Depression Visibility Wind Speed Wind Dir Waves Ship Positions

Jules

Last reported at 2017-Sep-17 16:07 UTC. Time now 2017-Sep-22 01:13 UTC.
Position N 47°43' W 003°21'.

Length 12 m.

Type: Sailing vessel. MMSI: 227252370.

Date/timePositionNaut miles runAvg speedWind from/ knotsBaromVisibWave heightAir tempDewpointWater temp
2017-Sep-17 16:07N 47°43' W 003°21'0 0.0
2017-Sep-17 15:58N 47°43' W 003°21'0 0.0
2017-Sep-17 15:30N 47°43' W 003°21'2 3.1
2017-Sep-17 15:00N 47°42' W 003°22'3 6.3
2017-Sep-17 14:30N 47°41' W 003°27'3 6.9
2017-Sep-17 14:00N 47°43' W 003°31'3 6.5
2017-Sep-17 13:30N 47°44' W 003°36'4 7.2
2017-Sep-17 13:00N 47°46' W 003°41'3 0.1
2017-Sep-16 14:06N 47°48' W 003°44'0 1.7
2017-Sep-16 14:00N 47°48' W 003°44'2 4.5
2017-Sep-16 13:30N 47°46' W 003°41'2 4.0
2017-Sep-16 13:00N 47°45' W 003°39'2 4.6
2017-Sep-16 12:30N 47°45' W 003°35'1 1.9
2017-Sep-16 12:00N 47°44' W 003°34'3 5.2
2017-Sep-16 11:30N 47°42' W 003°32'3 5.5
2017-Sep-16 11:00N 47°41' W 003°28'2 3.9
2017-Sep-16 10:30N 47°41' W 003°25'2 3.1
2017-Sep-16 10:00N 47°42' W 003°23'2 3.9
2017-Sep-16 09:30N 47°43' W 003°21'0 0.8
2017-Sep-16 08:59N 47°43' W 003°21'0 0.0
2017-Sep-16 08:29N 47°43' W 003°21'0 0.0
2017-Sep-16 07:59N 47°43' W 003°21'0 0.0
2017-Sep-16 07:29N 47°43' W 003°21'0 0.0
2017-Sep-16 06:59N 47°43' W 003°21'0 0.0
2017-Sep-16 06:29N 47°44' W 003°21'0 0.0
2017-Sep-16 05:59N 47°43' W 003°21'0 0.0
2017-Sep-16 05:29N 47°43' W 003°21'0 0.0
2017-Sep-16 04:59N 47°43' W 003°21'0 0.0
2017-Sep-16 04:29N 47°43' W 003°21'0 0.0
2017-Sep-16 03:59N 47°44' W 003°21'0 0.0
2017-Sep-16 03:29N 47°44' W 003°21'0 0.0
2017-Sep-16 02:59N 47°43' W 003°21'0 0.0
2017-Sep-16 02:29N 47°43' W 003°21'0 0.0
2017-Sep-16 01:59N 47°43' W 003°21'0 0.0
2017-Sep-16 01:29N 47°43' W 003°21'0 0.0
2017-Sep-16 00:59N 47°43' W 003°21'0 0.0
2017-Sep-16 00:29N 47°44' W 003°21'0 0.0
2017-Sep-15 23:59N 47°43' W 003°21'0 0.0
2017-Sep-15 23:29N 47°43' W 003°21'0 0.0
2017-Sep-15 22:59N 47°43' W 003°21'0 0.0
2017-Sep-15 22:29N 47°43' W 003°21'0 0.0
2017-Sep-15 21:59N 47°43' W 003°21'0 0.0
2017-Sep-15 21:29N 47°43' W 003°21'0 0.0
2017-Sep-15 20:59N 47°43' W 003°21'0 0.0
2017-Sep-15 20:29N 47°43' W 003°21'0 0.0
2017-Sep-15 19:59N 47°43' W 003°21'0 0.0
2017-Sep-15 19:29N 47°43' W 003°21'0 0.0
2017-Sep-15 18:59N 47°43' W 003°21'  

Dump ship's entire track history